Time;durP1;ratioP1;P1;durP2;ratioP2;P2;SDS_P1;SDS_P2;PMS_P1;PMS_P2;Temp;Humidity;BMP_temperature;BMP_pressure;BME280_temperature;BME280_humidity;BME280_pressure;Samples;Min_cycle;Max_cycle;Signal;HPM_P1;HPM_P2
2023/04/02 00:00:46;;;;;;;;;;;;;;;;;;6300458;22;19923;-87
2023/04/02 00:03:11;;;;;;;;;;;;;;;;;;6242042;22;20438;-88
2023/04/02 00:05:48;;;;;;;;;;;;;;;;;;6270122;22;19919;-88
2023/04/02 00:08:16;;;;;;;;;;;;;;;;;;6243799;22;20039;-88
2023/04/02 00:10:43;;;;;;;;;;;;;;;;;;6243288;22;19994;-88
2023/04/02 00:13:09;;;;;;;;;;;;;;;;;;6241855;22;19937;-88
2023/04/02 00:15:35;;;;;;;;;;;;;;;;;;6270664;22;19922;-88
2023/04/02 00:18:01;;;;;;;;;;;;;;;;;;6266875;22;20305;-88
2023/04/02 00:20:27;;;;;;;;;;;;;;;;;;6272008;22;19998;-88
2023/04/02 00:22:54;;;;;;;;;;;;;;;;;;6242321;22;19998;-88
2023/04/02 00:25:20;;;;;;;;;;;;;;;;;;6246338;22;19919;-87
2023/04/02 00:27:46;;;;;;;;;;;;;;;;;;6268351;22;19926;-88
2023/04/02 00:30:12;;;;;;;;;;;;;;;;;;6270747;22;19918;-88
2023/04/02 00:32:39;;;;;;;;;;;;;;;;;;6245338;22;20307;-87
2023/04/02 00:35:05;;;;;;;;;;;;;;;;;;6244831;22;19919;-88
2023/04/02 00:37:37;;;;;;;;;;;;;;;;;;6245041;22;19915;-88
2023/04/02 00:40:05;;;;;;;;;;;;;;;;;;6243563;22;19919;-88
2023/04/02 00:42:31;;;;;;;;;;;;;;;;;;6244179;22;19989;-88
2023/04/02 00:44:57;;;;;;;;;;;;;;;;;;6268164;22;20382;-88
2023/04/02 00:47:23;;;;;;;;;;;;;;;;;;6245874;22;19964;-88
2023/04/02 00:49:49;;;;;;;;;;;;;;;;;;6268465;22;19981;-88
2023/04/02 00:52:15;;;;;;;;;;;;;;;;;;6246568;22;20393;-88
2023/04/02 00:54:41;;;;;;;;;;;;;;;;;;6246460;22;19938;-88
2023/04/02 00:57:07;;;;;;;;;;;;;;;;;;6297326;22;19964;-88
2023/04/02 00:59:34;;;;;;;;;;;;;;;;;;6270044;22;19925;-88
2023/04/02 01:02:00;;;;;;;;;;;;;;;;;;6236848;22;19969;-88
2023/04/02 01:04:26;;;;;;;;;;;;;;;;;;6267434;22;19923;-88
2023/04/02 01:06:52;;;;;;;;;;;;;;;;;;6239500;22;20026;-88
2023/04/02 01:09:18;;;;;;;;;;;;;;;;;;6263492;22;20001;-87
2023/04/02 01:11:44;;;;;;;;;;;;;;;;;;6238251;22;19919;-88
2023/04/02 01:14:10;;;;;;;;;;;;;;;;;;6239645;22;19990;-88
2023/04/02 01:16:36;;;;;;;;;;;;;;;;;;6240026;22;20328;-88
2023/04/02 01:19:02;;;;;;;;;;;;;;;;;;6261811;22;19919;-88
2023/04/02 01:21:29;;;;;;;;;;;;;;;;;;6239479;22;19957;-88
2023/04/02 01:23:55;;;;;;;;;;;;;;;;;;6264470;22;19916;-88
2023/04/02 01:26:21;;;;;;;;;;;;;;;;;;6241762;22;20283;-88
2023/04/02 01:28:47;;;;;;;;;;;;;;;;;;6260907;22;19920;-88
2023/04/02 01:31:13;;;;;;;;;;;;;;;;;;6239075;22;19923;-88
2023/04/02 01:33:39;;;;;;;;;;;;;;;;;;6238536;22;19919;-88
2023/04/02 01:36:05;;;;;;;;;;;;;;;;;;6238653;22;19926;-88
2023/04/02 01:38:31;;;;;;;;;;;;;;;;;;6238391;22;19919;-88
2023/04/02 01:40:57;;;;;;;;;;;;;;;;;;6238673;22;19922;-88
2023/04/02 01:43:23;;;;;;;;;;;;;;;;;;6240297;22;20166;-88
2023/04/02 01:45:49;;;;;;;;;;;;;;;;;;6238022;22;20308;-88
2023/04/02 01:48:15;;;;;;;;;;;;;;;;;;6263735;22;19923;-88
2023/04/02 01:50:41;;;;;;;;;;;;;;;;;;6239836;22;19919;-87
2023/04/02 01:53:07;;;;;;;;;;;;;;;;;;6263951;22;19994;-88
2023/04/02 01:55:33;;;;;;;;;;;;;;;;;;6238968;22;20359;-88
2023/04/02 01:57:59;;;;;;;;;;;;;;;;;;6236691;22;19919;-88
2023/04/02 02:00:25;;;;;;;;;;;;;;;;;;6244494;22;19924;-88
2023/04/02 02:02:51;;;;;;;;;;;;;;;;;;6242515;22;19918;-88
2023/04/02 02:05:21;;;;;;;;;;;;;;;;;;6245957;22;19919;-88
2023/04/02 02:07:47;;;;;;;;;;;;;;;;;;6242802;22;19993;-88
2023/04/02 02:10:13;;;;;;;;;;;;;;;;;;6245660;22;20004;-88
2023/04/02 02:12:39;;;;;;;;;;;;;;;;;;6297618;22;19918;-88
2023/04/02 02:15:07;;;;;;;;;;;;;;;;;;6269462;22;19918;-88
2023/04/02 02:17:33;;;;;;;;;;;;;;;;;;6243897;22;20328;-88
2023/04/02 02:19:59;;;;;;;;;;;;;;;;;;6268883;22;20276;-88
2023/04/02 02:22:25;;;;;;;;;;;;;;;;;;6245151;22;19999;-88
2023/04/02 02:24:52;;;;;;;;;;;;;;;;;;6264653;22;19976;-88
2023/04/02 02:27:18;;;;;;;;;;;;;;;;;;6243026;22;19922;-87
2023/04/02 02:29:44;;;;;;;;;;;;;;;;;;6270080;22;19919;-88
2023/04/02 02:32:10;;;;;;;;;;;;;;;;;;6244037;22;19918;-87
2023/04/02 02:34:36;;;;;;;;;;;;;;;;;;6268794;22;19919;-88
2023/04/02 02:37:01;;;;;;;;;;;;;;;;;;6242653;22;19929;-88
2023/04/02 02:39:27;;;;;;;;;;;;;;;;;;6270467;22;19915;-88
2023/04/02 02:41:53;;;;;;;;;;;;;;;;;;6242051;22;19942;-88
2023/04/02 02:44:19;;;;;;;;;;;;;;;;;;6244838;22;20423;-87
2023/04/02 02:46:45;;;;;;;;;;;;;;;;;;6267515;22;19918;-87
2023/04/02 02:49:11;;;;;;;;;;;;;;;;;;6270964;22;20351;-88
2023/04/02 02:51:37;;;;;;;;;;;;;;;;;;6246002;22;19994;-87
2023/04/02 02:54:03;;;;;;;;;;;;;;;;;;6267482;22;19915;-88
2023/04/02 02:56:29;;;;;;;;;;;;;;;;;;6243639;22;19966;-88
2023/04/02 02:58:55;;;;;;;;;;;;;;;;;;6242080;22;19919;-87
2023/04/02 03:01:21;;;;;;;;;;;;;;;;;;6270117;22;19919;-88
2023/04/02 03:03:47;;;;;;;;;;;;;;;;;;6242074;22;19945;-88
2023/04/02 03:06:15;;;;;;;;;;;;;;;;;;6245882;22;20361;-88
2023/04/02 03:08:41;;;;;;;;;;;;;;;;;;6244360;22;19998;-87
2023/04/02 03:11:07;;;;;;;;;;;;;;;;;;6241965;22;20016;-88
2023/04/02 03:13:34;;;;;;;;;;;;;;;;;;6246266;22;19919;-88
2023/04/02 03:16:00;;;;;;;;;;;;;;;;;;6242205;22;20354;-88
2023/04/02 03:18:26;;;;;;;;;;;;;;;;;;6244476;22;20013;-88
2023/04/02 03:20:52;;;;;;;;;;;;;;;;;;6240482;22;19990;-87
2023/04/02 03:23:18;;;;;;;;;;;;;;;;;;6245015;22;19972;-88
2023/04/02 03:25:44;;;;;;;;;;;;;;;;;;6245247;22;19941;-88
2023/04/02 03:28:10;;;;;;;;;;;;;;;;;;6244652;22;19923;-88
2023/04/02 03:30:36;;;;;;;;;;;;;;;;;;6269751;22;19926;-88
2023/04/02 03:33:02;;;;;;;;;;;;;;;;;;6269350;22;19995;-88
2023/04/02 03:35:28;;;;;;;;;;;;;;;;;;6271182;22;19919;-88
2023/04/02 03:37:54;;;;;;;;;;;;;;;;;;6244413;22;19915;-88
2023/04/02 03:40:20;;;;;;;;;;;;;;;;;;6272344;22;20390;-88
2023/04/02 03:42:46;;;;;;;;;;;;;;;;;;6270117;22;19961;-87
2023/04/02 03:45:12;;;;;;;;;;;;;;;;;;6244580;22;19918;-88
2023/04/02 03:47:38;;;;;;;;;;;;;;;;;;6244289;22;19918;-88
2023/04/02 03:50:03;;;;;;;;;;;;;;;;;;6243020;22;20328;-88
2023/04/02 03:52:30;;;;;;;;;;;;;;;;;;6272892;22;19915;-88
2023/04/02 03:54:56;;;;;;;;;;;;;;;;;;6270976;22;20275;-88
2023/04/02 03:57:22;;;;;;;;;;;;;;;;;;6271960;22;19937;-88
2023/04/02 03:59:47;;;;;;;;;;;;;;;;;;6243836;22;20265;-89
2023/04/02 04:02:13;;;;;;;;;;;;;;;;;;6245159;22;19923;-88
2023/04/02 04:04:39;;;;;;;;;;;;;;;;;;6272858;22;19918;-88
2023/04/02 04:07:05;;;;;;;;;;;;;;;;;;6269865;22;19925;-88
2023/04/02 04:09:31;;;;;;;;;;;;;;;;;;6270719;22;20303;-87
2023/04/02 04:11:57;;;;;;;;;;;;;;;;;;6270115;22;19915;-88
2023/04/02 04:14:23;;;;;;;;;;;;;;;;;;6272168;22;19926;-88
2023/04/02 04:16:52;;;;;;;;;;;;;;;;;;6267634;22;19919;-88
2023/04/02 04:19:18;;;;;;;;;;;;;;;;;;6244987;22;19922;-88
2023/04/02 04:21:44;;;;;;;;;;;;;;;;;;6271132;22;19915;-88
2023/04/02 04:24:10;;;;;;;;;;;;;;;;;;6270855;22;19998;-88
2023/04/02 04:26:38;;;;;;;;;;;;;;;;;;6270814;22;19919;-88
2023/04/02 04:29:04;;;;;;;;;;;;;;;;;;6268247;22;20386;-88
2023/04/02 04:31:32;;;;;;;;;;;;;;;;;;6245431;22;20255;-88
2023/04/02 04:34:02;;;;;;;;;;;;;;;;;;6269812;22;19915;-88
2023/04/02 04:36:28;;;;;;;;;;;;;;;;;;6270575;22;19915;-87
2023/04/02 04:38:58;;;;;;;;;;;;;;;;;;6243780;22;20272;-88
2023/04/02 04:41:24;;;;;;;;;;;;;;;;;;6271898;22;19984;-88
2023/04/02 04:43:50;;;;;;;;;;;;;;;;;;6244211;22;20415;-87
2023/04/02 04:46:16;;;;;;;;;;;;;;;;;;6270056;22;19964;-87
2023/04/02 04:48:42;;;;;;;;;;;;;;;;;;6271228;22;19926;-87
2023/04/02 04:51:08;;;;;;;;;;;;;;;;;;6243738;22;19919;-87
2023/04/02 04:53:34;;;;;;;;;;;;;;;;;;6245911;22;19919;-88
2023/04/02 04:56:03;;;;;;;;;;;;;;;;;;6269937;22;19943;-88
2023/04/02 04:58:29;;;;;;;;;;;;;;;;;;6268529;22;20657;-88
2023/04/02 05:00:55;;;;;;;;;;;;;;;;;;6240395;22;19919;-88
2023/04/02 05:03:21;;;;;;;;;;;;;;;;;;6271259;22;19923;-88
2023/04/02 05:05:47;;;;;;;;;;;;;;;;;;6268356;22;20389;-88
2023/04/02 05:08:13;;;;;;;;;;;;;;;;;;6244042;22;19918;-88
2023/04/02 05:10:39;;;;;;;;;;;;;;;;;;6272175;22;19950;-88
2023/04/02 05:13:05;;;;;;;;;;;;;;;;;;6242028;22;19980;-88
2023/04/02 05:15:31;;;;;;;;;;;;;;;;;;6245299;22;19978;-87
2023/04/02 05:17:57;;;;;;;;;;;;;;;;;;6240457;22;19922;-88
2023/04/02 05:20:23;;;;;;;;;;;;;;;;;;6271576;22;20028;-88
2023/04/02 05:22:49;;;;;;;;;;;;;;;;;;6268992;22;19918;-88
2023/04/02 05:25:15;;;;;;;;;;;;;;;;;;6271983;22;19937;-88
2023/04/02 05:27:41;;;;;;;;;;;;;;;;;;6244962;22;19918;-88
2023/04/02 05:30:07;;;;;;;;;;;;;;;;;;6267252;22;20532;-88
2023/04/02 05:32:33;;;;;;;;;;;;;;;;;;6269058;22;20299;-88
2023/04/02 05:34:59;;;;;;;;;;;;;;;;;;6268110;22;19994;-88
2023/04/02 05:37:25;;;;;;;;;;;;;;;;;;6244652;22;19914;-88
2023/04/02 05:39:51;;;;;;;;;;;;;;;;;;6243646;22;19944;-88
2023/04/02 05:42:17;;;;;;;;;;;;;;;;;;6270645;22;19919;-88
2023/04/02 05:44:46;;;;;;;;;;;;;;;;;;6243937;22;19915;-88
2023/04/02 05:47:12;;;;;;;;;;;;;;;;;;6270043;22;19919;-88
2023/04/02 05:49:38;;;;;;;;;;;;;;;;;;6244540;22;20658;-87
2023/04/02 05:52:04;;;;;;;;;;;;;;;;;;6296838;22;19923;-88
2023/04/02 05:54:30;;;;;;;;;;;;;;;;;;6269570;22;19919;-88
2023/04/02 05:56:56;;;;;;;;;;;;;;;;;;6268328;22;19919;-87
2023/04/02 08:09:59;;;;;;;;;;;;;;;;;;6266048;22;19929;-88
2023/04/02 08:12:25;;;;;;;;;;;;;;;;;;6240757;22;19916;-89
2023/04/02 08:14:51;;;;;;;;;;;;;;;;;;6262827;22;19926;-88
2023/04/02 08:17:17;;;;;;;;;;;;;;;;;;6265285;22;19930;-88
2023/04/02 08:19:46;;;;;;;;;;;;;;;;;;6239424;22;20367;-89
2023/04/02 08:22:12;;;;;;;;;;;;;;;;;;6240675;22;19915;-88
2023/04/02 08:24:38;;;;;;;;;;;;;;;;;;6240110;22;19926;-89
2023/04/02 08:27:04;;;;;;;;;;;;;;;;;;6263436;22;20497;-88
2023/04/02 08:29:31;;;;;;;;;;;;;;;;;;6239703;22;20489;-88
2023/04/02 08:31:57;;;;;;;;;;;;;;;;;;6237533;22;19915;-89
2023/04/02 08:34:23;;;;;;;;;;;;;;;;;;6241753;22;20386;-88
2023/04/02 08:36:49;;;;;;;;;;;;;;;;;;6263933;22;19954;-89
2023/04/02 08:39:14;;;;;;;;;;;;;;;;;;6240152;22;19919;-88
2023/04/02 08:41:40;;;;;;;;;;;;;;;;;;6237262;22;19919;-88
2023/04/02 08:44:07;;;;;;;;;;;;;;;;;;6262424;22;19919;-88
2023/04/02 08:46:33;;;;;;;;;;;;;;;;;;6263030;22;20260;-89
2023/04/02 08:48:59;;;;;;;;;;;;;;;;;;6262619;22;19923;-88
2023/04/02 08:51:24;;;;;;;;;;;;;;;;;;6238964;22;19919;-88
2023/04/02 08:53:50;;;;;;;;;;;;;;;;;;6262377;22;20287;-88
2023/04/02 08:56:16;;;;;;;;;;;;;;;;;;6237459;22;19923;-88
2023/04/02 08:58:43;;;;;;;;;;;;;;;;;;6232980;22;19919;-88
2023/04/02 09:01:09;;;;;;;;;;;;;;;;;;6260356;22;19919;-88
2023/04/02 09:03:35;;;;;;;;;;;;;;;;;;6238074;22;19919;-88
2023/04/02 09:06:01;;;;;;;;;;;;;;;;;;6263638;22;19915;-88
2023/04/02 09:08:27;;;;;;;;;;;;;;;;;;6241533;22;20387;-88
2023/04/02 09:10:53;;;;;;;;;;;;;;;;;;6238215;22;19951;-89
2023/04/02 09:13:18;;;;;;;;;;;;;;;;;;6263457;22;19919;-88
2023/04/02 09:15:44;;;;;;;;;;;;;;;;;;6239945;22;20384;-89
2023/04/02 09:18:10;;;;;;;;;;;;;;;;;;6238531;22;19946;-89
2023/04/02 09:20:36;;;;;;;;;;;;;;;;;;6265397;22;19961;-89
2023/04/02 09:23:02;;;;;;;;;;;;;;;;;;6236458;22;19923;-89
2023/04/02 09:25:30;;;;;;;;;;;;;;;;;;6239541;22;19941;-89
2023/04/02 09:27:56;;;;;;;;;;;;;;;;;;6239751;22;19919;-89
2023/04/02 09:30:23;;;;;;;;;;;;;;;;;;6242287;22;20239;-89
2023/04/02 09:32:49;;;;;;;;;;;;;;;;;;6239188;22;19954;-88
2023/04/02 09:35:15;;;;;;;;;;;;;;;;;;6241025;22;20312;-89
2023/04/02 09:37:42;;;;;;;;;;;;;;;;;;6241308;22;19919;-89
2023/04/02 09:40:10;;;;;;;;;;;;;;;;;;6262028;22;20001;-89
2023/04/02 09:42:37;;;;;;;;;;;;;;;;;;6237672;22;19926;-89
2023/04/02 09:45:02;;;;;;;;;;;;;;;;;;6237759;22;19923;-89
2023/04/02 09:47:28;;;;;;;;;;;;;;;;;;6241714;22;20454;-93
2023/04/02 09:49:55;;;;;;;;;;;;;;;;;;6241208;22;19930;-92
2023/04/02 09:52:21;;;;;;;;;;;;;;;;;;6239920;22;19919;-91
2023/04/02 09:54:47;;;;;;;;;;;;;;;;;;6237913;22;19927;-92
2023/04/02 09:57:13;;;;;;;;;;;;;;;;;;6266309;22;20295;-91
2023/04/02 09:59:39;;;;;;;;;;;;;;;;;;6264320;22;19945;-92
2023/04/02 10:02:05;;;;;;;;;;;;;;;;;;6237184;22;20425;-91
2023/04/02 10:04:31;;;;;;;;;;;;;;;;;;6239781;22;20127;-92
2023/04/02 10:06:57;;;;;;;;;;;;;;;;;;6263009;22;20348;-91
2023/04/02 10:09:23;;;;;;;;;;;;;;;;;;6264549;22;20261;-91
2023/04/02 10:11:49;;;;;;;;;;;;;;;;;;6260475;22;20332;-91
2023/04/02 10:14:15;;;;;;;;;;;;;;;;;;6238740;22;19919;-91
2023/04/02 10:16:41;;;;;;;;;;;;;;;;;;6238260;22;19969;-91
2023/04/02 10:19:07;;;;;;;;;;;;;;;;;;6235559;22;19966;-90
2023/04/02 10:21:33;;;;;;;;;;;;;;;;;;6239603;22;20226;-90
2023/04/02 10:24:01;;;;;;;;;;;;;;;;;;6238289;22;19919;-90
2023/04/02 10:26:27;;;;;;;;;;;;;;;;;;6261120;22;19919;-91
2023/04/02 10:28:53;;;;;;;;;;;;;;;;;;6235661;22;19923;-90
2023/04/02 10:31:21;;;;;;;;;;;;;;;;;;6237975;22;19923;-91
2023/04/02 10:33:47;;;;;;;;;;;;;;;;;;6259888;22;19926;-91
2023/04/02 10:36:13;;;;;;;;;;;;;;;;;;6239046;22;19919;-90
2023/04/02 10:38:40;;;;;;;;;;;;;;;;;;6236199;22;20002;-91
2023/04/02 10:41:06;;;;;;;;;;;;;;;;;;6237109;22;19946;-91
2023/04/02 10:43:32;;;;;;;;;;;;;;;;;;6240975;22;19923;-91
2023/04/02 10:45:58;;;;;;;;;;;;;;;;;;6264490;22;19915;-91
2023/04/02 10:48:24;;;;;;;;;;;;;;;;;;6241459;22;19925;-90
2023/04/02 10:50:50;;;;;;;;;;;;;;;;;;6240485;22;20213;-91
2023/04/02 10:53:17;;;;;;;;;;;;;;;;;;6241672;22;19994;-91
2023/04/02 10:55:46;;;;;;;;;;;;;;;;;;6267463;22;19922;-92
2023/04/02 10:58:12;;;;;;;;;;;;;;;;;;6267634;22;19998;-91
2023/04/02 11:00:38;;;;;;;;;;;;;;;;;;6240473;22;20029;-91
2023/04/02 11:03:08;;;;;;;;;;;;;;;;;;6238781;22;20365;-91
2023/04/02 11:05:35;;;;;;;;;;;;;;;;;;6240137;22;19955;-92
2023/04/02 11:08:04;;;;;;;;;;;;;;;;;;6245026;22;19923;-92
2023/04/02 11:10:30;;;;;;;;;;;;;;;;;;6246258;22;19965;-91
2023/04/02 11:12:56;;;;;;;;;;;;;;;;;;6243659;22;19919;-92
2023/04/02 11:15:24;;;;;;;;;;;;;;;;;;6245247;22;19918;-92
2023/04/02 11:17:50;;;;;;;;;;;;;;;;;;6244843;22;19922;-93
2023/04/02 11:20:19;;;;;;;;;;;;;;;;;;6246700;22;19961;-93
2023/04/02 11:22:48;;;;;;;;;;;;;;;;;;6243542;22;19919;-93
2023/04/02 11:25:14;;;;;;;;;;;;;;;;;;6245311;22;20254;-88
2023/04/02 11:27:40;;;;;;;;;;;;;;;;;;6244574;22;19915;-89
2023/04/02 11:30:06;;;;;;;;;;;;;;;;;;6242485;22;19958;-87
2023/04/02 11:32:32;;;;;;;;;;;;;;;;;;6244468;22;19938;-90
2023/04/02 11:35:00;;;;;;;;;;;;;;;;;;6241241;22;19919;-90
2023/04/02 11:37:26;;;;;;;;;;;;;;;;;;6268878;22;19919;-88
2023/04/02 11:39:53;;;;;;;;;;;;;;;;;;6238044;22;19942;-88
2023/04/02 11:42:19;;;;;;;;;;;;;;;;;;6242912;22;19923;-80
2023/04/02 11:44:45;;;;;;;;;;;;;;;;;;6292759;22;19925;-91
2023/04/02 11:47:11;;;;;;;;;;;;;;;;;;6268901;22;19915;-90
2023/04/02 11:49:38;;;;;;;;;;;;;;;;;;6244730;22;20330;-89
2023/04/02 11:52:04;;;;;;;;;;;;;;;;;;6241413;22;19923;-88
2023/04/02 11:54:30;;;;;;;;;;;;;;;;;;6241357;22;19919;-88
2023/04/02 11:56:56;;;;;;;;;;;;;;;;;;6242486;22;20347;-88
2023/04/02 11:59:22;;;;;;;;;;;;;;;;;;6243213;22;20009;-93
2023/04/02 12:01:48;;;;;;;;;;;;;;;;;;6242206;22;19914;-88
2023/04/02 12:04:14;;;;;;;;;;;;;;;;;;6247716;22;19919;-93
2023/04/02 12:06:41;;;;;;;;;;;;;;;;;;6275489;22;19915;-93
2023/04/02 12:09:07;;;;;;;;;;;;;;;;;;6277697;22;19919;-95
2023/04/02 12:11:33;;;;;;;;;;;;;;;;;;6282472;22;19929;-93
2023/04/02 12:13:59;;;;;;;;;;;;;;;;;;6247241;22;19993;-92
2023/04/02 12:16:30;;;;;;;;;;;;;;;;;;6247562;22;19919;-93
2023/04/02 12:19:01;;;;;;;;;;;;;;;;;;6246403;22;19921;-92
2023/04/02 12:21:27;;;;;;;;;;;;;;;;;;6273791;22;19915;-92
2023/04/02 12:23:53;;;;;;;;;;;;;;;;;;6245625;22;19926;-92
2023/04/02 12:26:19;;;;;;;;;;;;;;;;;;6246827;22;19919;-93
2023/04/02 12:28:48;;;;;;;;;;;;;;;;;;6246081;22;19926;-93
2023/04/02 12:31:16;;;;;;;;;;;;;;;;;;6247594;22;19926;-93
2023/04/02 12:33:42;;;;;;;;;;;;;;;;;;6246774;22;19919;-93
2023/04/02 12:36:26;;;;;;;;;;;;;;;;;;6244611;22;20282;-92
2023/04/02 12:39:11;;;;;;;;;;;;;;;;;;6215320;23;20050;-87
2023/04/02 12:41:37;;;;;;;;;;;;;;;;;;6178129;23;19920;-88
2023/04/02 12:44:03;;;;;;;;;;;;;;;;;;6176020;23;19920;-88
2023/04/02 12:46:29;;;;;;;;;;;;;;;;;;6178094;23;20499;-88
2023/04/02 12:48:55;;;;;;;;;;;;;;;;;;6152755;23;19995;-88
2023/04/02 12:51:21;;;;;;;;;;;;;;;;;;6178895;23;19916;-88
2023/04/02 12:53:47;;;;;;;;;;;;;;;;;;6179592;23;19915;-89
2023/04/02 12:56:13;;;;;;;;;;;;;;;;;;6180585;23;20250;-88
2023/04/02 12:58:39;;;;;;;;;;;;;;;;;;6180637;23;19994;-88
2023/04/02 13:01:08;;;;;;;;;;;;;;;;;;6175070;23;20394;-89
2023/04/02 13:03:34;;;;;;;;;;;;;;;;;;6178465;23;19962;-89
2023/04/02 13:15:31;;;;;;;;;;;;;;;;;;;;;
2023/04/02 13:18:15;;;;;;;;;;;;;;;;;;6237974;23;19990;-91
2023/04/02 13:21:26;;;;;;;;;;;;;;;;;;6209199;23;19992;-91
2023/04/02 13:23:37;;;;;;;;;;;;;;;;;;6235234;23;19923;-91
2023/04/02 13:26:12;;;;;;;;;;;;;;;;;;6235048;23;19930;-91
2023/04/02 13:28:38;;;;;;;;;;;;;;;;;;6204422;23;19919;-91
2023/04/02 13:31:09;;;;;;;;;;;;;;;;;;6207960;23;20291;-91
2023/04/02 13:33:40;;;;;;;;;;;;;;;;;;6211971;23;20269;-92
2023/04/02 13:36:21;;;;;;;;;;;;;;;;;;6234130;23;19915;-91
2023/04/02 13:38:50;;;;;;;;;;;;;;;;;;6204709;23;20628;-91
2023/04/02 13:41:16;;;;;;;;;;;;;;;;;;6234031;23;19927;-91
2023/04/02 13:43:42;;;;;;;;;;;;;;;;;;6210109;23;20423;-92
2023/04/02 13:46:08;;;;;;;;;;;;;;;;;;6206380;23;19946;-91
2023/04/02 13:48:34;;;;;;;;;;;;;;;;;;6234565;23;19974;-91
2023/04/02 13:51:03;;;;;;;;;;;;;;;;;;6233079;23;20332;-92
2023/04/02 13:53:30;;;;;;;;;;;;;;;;;;6209689;23;20285;-91
2023/04/02 13:55:56;;;;;;;;;;;;;;;;;;6232616;23;19923;-91
2023/04/02 13:58:22;;;;;;;;;;;;;;;;;;6211822;23;20226;-91
2023/04/02 14:00:50;;;;;;;;;;;;;;;;;;6233849;23;19942;-90
2023/04/02 14:03:17;;;;;;;;;;;;;;;;;;6210084;23;19915;-91
2023/04/02 14:17:46;;;;;;;;;;;;;;;;;;;;;
2023/04/02 14:33:03;;;;;;;;;;;;;;;;;;;;;
2023/04/02 14:35:52;;;;;;;;;;;;;;;;;;6146728;23;19924;-82
2023/04/02 14:38:40;;;;;;;;;;;;;;;;;;;;;
2023/04/02 14:41:10;;;;;;;;;;;;;;;;;;6159242;23;19959;-83
2023/04/02 14:43:36;;;;;;;;;;;;;;;;;;6112739;23;20416;-82
2023/04/02 14:46:02;;;;;;;;;;;;;;;;;;6164615;23;19936;-82
2023/04/02 14:48:34;;;;;;;;;;;;;;;;;;6144272;23;20012;-83
2023/04/02 14:51:01;;;;;;;;;;;;;;;;;;6165630;23;20409;-83
2023/04/02 14:53:30;;;;;;;;;;;;;;;;;;6170051;22;20247;-82
2023/04/02 14:55:59;;;;;;;;;;;;;;;;;;6231615;22;19930;-82
2023/04/02 15:01:25;;;;;;;;;;;;;;;;;;6233950;22;19926;-83
2023/04/02 15:03:57;;;;;;;;;;;;;;;;;;6233849;22;19993;-83
2023/04/02 15:06:44;;;;;;;;;;;;;;;;;;6257985;22;19994;-83
2023/04/02 15:09:13;;;;;;;;;;;;;;;;;;6235709;22;19923;-83
2023/04/02 15:11:52;;;;;;;;;;;;;;;;;;6232917;22;19967;-85
2023/04/02 15:14:55;;;;;;;;;;;;;;;;;;6147734;23;19929;-85
2023/04/02 15:17:38;;;;;;;;;;;;;;;;;;6090155;23;20439;-84
2023/04/02 15:20:20;;;;;;;;;;;;;;;;;;6175365;23;20516;-84
2023/04/02 15:23:20;;;;;;;;;;;;;;;;;;6222504;23;20106;-85
2023/04/02 15:26:24;;;;;;;;;;;;;;;;;;;;;
2023/04/02 15:29:04;;;;;;;;;;;;;;;;;;6137985;23;20378;-85
2023/04/02 15:34:58;;;;;;;;;;;;;;;;;;6061769;23;20318;-87
2023/04/02 15:48:22;;;;;;;;;;;;;;;;;;6263816;22;19990;-85
2023/04/02 15:51:12;;;;;;;;;;;;;;;;;;6214008;22;19963;-85
2023/04/02 15:53:52;;;;;;;;;;;;;;;;;;6213613;22;19916;-85
2023/04/02 15:56:39;;;;;;;;;;;;;;;;;;;;;
2023/04/02 16:05:55;;;;;;;;;;;;;;;;;;6254354;22;19919;-85
2023/04/02 16:11:15;;;;;;;;;;;;;;;;;;6164271;23;20329;-84
2023/04/02 16:13:59;;;;;;;;;;;;;;;;;;6169536;23;20254;-84
2023/04/02 16:16:46;;;;;;;;;;;;;;;;;;6146713;23;19967;-84
2023/04/02 16:22:38;;;;;;;;;;;;;;;;;;;;;
2023/04/02 16:25:52;;;;;;;;;;;;;;;;;;;;;
2023/04/02 16:28:54;;;;;;;;;;;;;;;;;;6103868;23;19936;-85
2023/04/02 16:31:56;;;;;;;;;;;;;;;;;;;;;
2023/04/02 16:50:32;;;;;;;;;;;;;;;;;;;;;
2023/04/02 17:09:13;;;;;;;;;;;;;;;;;;5836949;24;19939;-87
2023/04/02 17:26:29;;;;;;;;;;;;;;;;;;6165556;23;20055;-86
2023/04/02 17:29:13;;;;;;;;;;;;;;;;;;6204934;23;19923;-85
2023/04/02 17:34:33;;;;;;;;;;;;;;;;;;6185574;23;19998;-84
2023/04/02 17:37:10;;;;;;;;;;;;;;;;;;6177911;23;19923;-85
2023/04/02 17:58:10;;;;;;;;;;;;;;;;;;;;;
2023/04/02 18:04:59;;;;;;;;;;;;;;;;;;6207088;23;19979;-87
2023/04/02 18:07:24;;;;;;;;;;;;;;;;;;6227261;23;19919;-84
2023/04/02 18:10:24;;;;;;;;;;;;;;;;;;6101913;23;19991;-89
2023/04/02 18:15:39;;;;;;;;;;;;;;;;;;6252024;22;19929;-85
2023/04/02 18:21:12;;;;;;;;;;;;;;;;;;6303939;22;20376;-94
2023/04/02 18:23:58;;;;;;;;;;;;;;;;;;6299371;22;19918;-92
2023/04/02 18:26:24;;;;;;;;;;;;;;;;;;6297818;22;20258;-91
2023/04/02 18:29:01;;;;;;;;;;;;;;;;;;6276322;22;21984;-92
2023/04/02 18:31:27;;;;;;;;;;;;;;;;;;6243504;22;19953;-92
2023/04/02 18:33:53;;;;;;;;;;;;;;;;;;6239979;22;19921;-91
2023/04/02 18:36:30;;;;;;;;;;;;;;;;;;;;;
2023/04/02 18:39:05;;;;;;;;;;;;;;;;;;6224632;23;20308;-92
2023/04/02 18:41:37;;;;;;;;;;;;;;;;;;6181799;23;20090;-93
2023/04/02 18:47:08;;;;;;;;;;;;;;;;;;;;;
2023/04/02 18:49:40;;;;;;;;;;;;;;;;;;6210754;23;19926;-93
2023/04/02 18:54:55;;;;;;;;;;;;;;;;;;6192182;23;19923;-92
2023/04/02 18:57:30;;;;;;;;;;;;;;;;;;6183964;23;20384;-92
2023/04/02 19:00:06;;;;;;;;;;;;;;;;;;;;;
2023/04/02 19:02:34;;;;;;;;;;;;;;;;;;6208236;23;20010;-91
2023/04/02 19:05:11;;;;;;;;;;;;;;;;;;6207823;23;19926;-91
2023/04/02 19:07:40;;;;;;;;;;;;;;;;;;6183251;23;19994;-92
2023/04/02 19:10:18;;;;;;;;;;;;;;;;;;6219830;22;19926;-93
2023/04/02 19:12:47;;;;;;;;;;;;;;;;;;6244199;22;19919;-91
2023/04/02 19:15:13;;;;;;;;;;;;;;;;;;6245680;22;19918;-93
2023/04/02 19:17:57;;;;;;;;;;;;;;;;;;6244953;22;19921;-92
2023/04/02 19:20:36;;;;;;;;;;;;;;;;;;;;;
2023/04/02 19:26:02;;;;;;;;;;;;;;;;;;6274737;22;19918;-92
2023/04/02 19:28:28;;;;;;;;;;;;;;;;;;6274936;22;19923;-86
2023/04/02 19:30:55;;;;;;;;;;;;;;;;;;6264780;22;19919;-85
2023/04/02 19:33:21;;;;;;;;;;;;;;;;;;6270515;22;20380;-85
2023/04/02 19:35:47;;;;;;;;;;;;;;;;;;6266765;22;20126;-86
2023/04/02 19:38:13;;;;;;;;;;;;;;;;;;6266370;22;19990;-85
2023/04/02 19:40:39;;;;;;;;;;;;;;;;;;6267492;22;19919;-85
2023/04/02 19:43:05;;;;;;;;;;;;;;;;;;6266159;22;20433;-85
2023/04/02 19:45:31;;;;;;;;;;;;;;;;;;6268721;22;19919;-85
2023/04/02 19:47:57;;;;;;;;;;;;;;;;;;6265298;22;20005;-85
2023/04/02 19:50:23;;;;;;;;;;;;;;;;;;6266465;22;19925;-85
2023/04/02 19:52:49;;;;;;;;;;;;;;;;;;6267219;22;19994;-85
2023/04/02 19:55:15;;;;;;;;;;;;;;;;;;6270440;22;19915;-85
2023/04/02 19:57:41;;;;;;;;;;;;;;;;;;6265854;22;20218;-85
2023/04/02 20:00:08;;;;;;;;;;;;;;;;;;6262556;22;19958;-85
2023/04/02 20:03:05;;;;;;;;;;;;;;;;;;;;;
2023/04/02 20:05:45;;;;;;;;;;;;;;;;;;6291175;22;19915;-85
2023/04/02 20:08:37;;;;;;;;;;;;;;;;;;6180723;23;19920;-85
2023/04/02 20:23:01;;;;;;;;;;;;;;;;;;6053658;23;20351;-85
2023/04/02 20:29:30;;;;;;;;;;;;;;;;;;;;;
2023/04/02 20:32:28;;;;;;;;;;;;;;;;;;6088068;23;19927;-85
2023/04/02 20:38:07;;;;;;;;;;;;;;;;;;6115117;23;20391;-84
2023/04/02 20:40:52;;;;;;;;;;;;;;;;;;;;;
2023/04/02 20:43:59;;;;;;;;;;;;;;;;;;;;;
2023/04/02 20:46:40;;;;;;;;;;;;;;;;;;6088544;23;19974;-86
2023/04/02 20:52:26;;;;;;;;;;;;;;;;;;;;;
2023/04/02 20:55:20;;;;;;;;;;;;;;;;;;6106667;23;20462;-85
2023/04/02 20:57:48;;;;;;;;;;;;;;;;;;6079907;23;20152;-85
2023/04/02 21:00:14;;;;;;;;;;;;;;;;;;6095367;23;19939;-85
2023/04/02 21:02:40;;;;;;;;;;;;;;;;;;6120688;23;20365;-85
2023/04/02 21:05:06;;;;;;;;;;;;;;;;;;6168717;23;19920;-85
2023/04/02 21:07:33;;;;;;;;;;;;;;;;;;6169948;23;19930;-85
2023/04/02 21:09:59;;;;;;;;;;;;;;;;;;6142264;23;19924;-85
2023/04/02 21:12:25;;;;;;;;;;;;;;;;;;6144132;23;19966;-85
2023/04/02 21:14:56;;;;;;;;;;;;;;;;;;6140717;23;20381;-85
2023/04/02 21:17:22;;;;;;;;;;;;;;;;;;6144327;23;19920;-85
2023/04/02 21:19:48;;;;;;;;;;;;;;;;;;6164678;23;19973;-85
2023/04/02 21:22:14;;;;;;;;;;;;;;;;;;6205744;23;19919;-85
2023/04/02 21:24:40;;;;;;;;;;;;;;;;;;6205908;23;19926;-85
2023/04/02 21:27:06;;;;;;;;;;;;;;;;;;6201972;23;19919;-85
2023/04/02 21:29:32;;;;;;;;;;;;;;;;;;6181096;22;19981;-85
2023/04/02 21:31:58;;;;;;;;;;;;;;;;;;6233680;22;19988;-85
2023/04/02 21:34:24;;;;;;;;;;;;;;;;;;6237413;22;19926;-85
2023/04/02 21:36:50;;;;;;;;;;;;;;;;;;6205538;22;19982;-85
2023/04/02 21:39:16;;;;;;;;;;;;;;;;;;6235808;22;20037;-85
2023/04/02 21:41:41;;;;;;;;;;;;;;;;;;6234396;22;19920;-85
2023/04/02 21:44:07;;;;;;;;;;;;;;;;;;6207992;22;20248;-85
2023/04/02 21:46:33;;;;;;;;;;;;;;;;;;6234232;22;19919;-85
2023/04/02 21:48:59;;;;;;;;;;;;;;;;;;6209620;22;20320;-85
2023/04/02 21:51:25;;;;;;;;;;;;;;;;;;6210355;22;19930;-85
2023/04/02 21:53:55;;;;;;;;;;;;;;;;;;6208861;22;19919;-85
2023/04/02 21:56:21;;;;;;;;;;;;;;;;;;6210774;22;19930;-86
2023/04/02 21:58:47;;;;;;;;;;;;;;;;;;6233622;22;19919;-86
2023/04/02 22:01:13;;;;;;;;;;;;;;;;;;6234936;22;19919;-86
2023/04/02 22:03:42;;;;;;;;;;;;;;;;;;6212082;22;20348;-86
2023/04/02 22:06:08;;;;;;;;;;;;;;;;;;6208090;22;19926;-85
2023/04/02 22:08:37;;;;;;;;;;;;;;;;;;6213014;22;19919;-85
2023/04/02 22:11:03;;;;;;;;;;;;;;;;;;6234879;22;19919;-86
2023/04/02 22:13:29;;;;;;;;;;;;;;;;;;6213084;22;20336;-86
2023/04/02 22:15:55;;;;;;;;;;;;;;;;;;6209142;22;20354;-86